Time;durP1;ratioP1;P1;durP2;ratioP2;P2;SDS_P1;SDS_P2;PMS_P1;PMS_P2;Temp;Humidity;BMP_temperature;BMP_pressure;BME280_temperature;BME280_humidity;BME280_pressure;Samples;Min_cycle;Max_cycle;Signal;HPM_P1;HPM_P2
2023/10/19 00:02:34;;;;;;;23.02;14.80;;;;;;;7.17;100.00;99632.41;10416012;28;20041;-76
2023/10/19 00:07:34;;;;;;;26.48;15.65;;;;;;;7.10;100.00;99607.19;10415135;28;20060;-74
2023/10/19 00:12:35;;;;;;;28.67;17.45;;;;;;;7.09;100.00;99600.91;10413946;28;20099;-73
2023/10/19 00:17:38;;;;;;;31.15;17.08;;;;;;;6.94;100.00;99582.44;10407195;28;20048;-74
2023/10/19 00:22:38;;;;;;;29.90;16.90;;;;;;;7.06;100.00;99594.03;10416424;28;20053;-75
2023/10/19 00:27:40;;;;;;;27.73;17.10;;;;;;;7.03;100.00;99594.56;10416005;28;20057;-73
2023/10/19 00:32:42;;;;;;;33.00;18.35;;;;;;;7.03;100.00;99583.63;10415625;28;20540;-76
2023/10/19 00:37:44;;;;;;;31.55;18.10;;;;;;;7.05;100.00;99573.22;10414935;28;20030;-74
2023/10/19 00:42:46;;;;;;;32.78;18.52;;;;;;;7.02;100.00;99562.78;10413348;28;20044;-74
2023/10/19 00:47:48;;;;;;;36.15;19.25;;;;;;;7.01;100.00;99546.66;10413634;28;20038;-75
2023/10/19 00:52:51;;;;;;;36.60;20.10;;;;;;;6.89;100.00;99524.97;10422064;28;20041;-74
2023/10/19 00:57:54;;;;;;;34.05;19.67;;;;;;;6.91;100.00;99525.53;10421539;28;20037;-77
2023/10/19 01:02:59;;;;;;;33.58;19.67;;;;;;;6.95;100.00;99526.66;10404712;28;20045;-73
2023/10/19 01:08:02;;;;;;;37.30;21.02;;;;;;;6.96;100.00;99517.34;10420772;28;20394;-73
2023/10/19 01:13:05;;;;;;;37.03;20.95;;;;;;;6.96;100.00;99511.88;10420666;28;20037;-70
2023/10/19 01:18:10;;;;;;;41.00;21.58;;;;;;;6.95;100.00;99510.22;10422590;28;20041;-73
2023/10/19 01:23:26;;;;;;;41.05;21.75;;;;;;;6.94;100.00;99497.63;10422826;28;20041;-75
2023/10/19 01:33:41;;;;;;;40.10;23.15;;;;;;;6.94;100.00;99489.41;10420534;28;20041;-74
2023/10/19 01:38:42;;;;;;;39.58;22.38;;;;;;;6.94;100.00;99481.19;10420521;28;20049;-73
2023/10/19 01:43:43;;;;;;;42.53;22.60;;;;;;;6.88;100.00;99460.38;10403484;28;20072;-71
2023/10/19 01:48:44;;;;;;;46.50;24.77;;;;;;;6.94;100.00;99463.97;10418535;28;20046;-71
2023/10/19 01:53:44;;;;;;;49.08;24.50;;;;;;;6.94;100.00;99453.84;10419015;28;20509;-72
2023/10/19 01:58:48;;;;;;;48.72;24.38;;;;;;;6.89;100.00;99440.16;10435487;28;20540;-73
2023/10/19 02:03:53;;;;;;;42.70;24.05;;;;;;;6.89;100.00;99440.16;10417320;28;20048;-74
2023/10/19 02:09:09;;;;;;;49.03;24.08;;;;;;;6.86;100.00;99430.56;10420906;28;20105;-72
2023/10/19 02:14:15;;;;;;;50.08;25.27;;;;;;;6.88;100.00;99433.00;10419287;28;20139;-72
2023/10/19 02:19:15;;;;;;;;;;;;;;;6.91;100.00;99437.16;10420869;28;20038;-72
2023/10/19 02:24:16;;;;;;;46.94;25.76;;;;;;;6.87;100.00;99414.97;10419869;28;19921;-73
2023/10/19 02:29:18;;;;;;;49.97;25.27;;;;;;;6.87;100.00;99393.09;10419925;28;20037;-73
2023/10/19 02:34:19;;;;;;;49.58;26.25;;;;;;;6.90;100.00;99408.94;10417485;28;20037;-71
2023/10/19 02:39:20;;;;;;;53.70;25.52;;;;;;;6.90;100.00;99422.63;10413192;28;20041;-71
2023/10/19 02:44:25;;;;;;;44.58;25.85;;;;;;;6.91;100.00;99415.28;10423096;28;20041;-72
2023/10/19 02:49:26;;;;;;;46.97;25.23;;;;;;;6.92;100.00;99387.63;10431962;28;20045;-73
2023/10/19 02:54:27;;;;;;;49.53;25.67;;;;;;;6.91;100.00;99388.72;10430930;28;20056;-76
2023/10/19 02:59:28;;;;;;;51.08;24.67;;;;;;;6.91;100.00;99382.44;10432580;28;20041;-76
2023/10/19 03:04:29;;;;;;;52.03;25.63;;;;;;;6.92;100.00;99378.59;10431309;28;20044;-74
2023/10/19 03:09:29;;;;;;;44.63;23.15;;;;;;;6.83;100.00;99367.34;10424006;28;20038;-73
2023/10/19 03:14:33;;;;;;;52.63;25.77;;;;;;;6.96;100.00;99368.78;10420673;28;20044;-73
2023/10/19 03:19:34;;;;;;;50.67;24.38;;;;;;;6.98;100.00;99356.47;10433553;28;20041;-71
2023/10/19 03:24:43;;;;;;;50.95;24.38;;;;;;;7.00;100.00;99351.53;10424264;28;20120;-75
2023/10/19 03:30:02;;;;;;;51.95;25.23;;;;;;;7.00;100.00;99348.00;10429024;28;20049;-73
2023/10/19 03:35:04;;;;;;;44.72;23.50;;;;;;;6.77;100.00;99308.25;10405310;28;20434;-71
2023/10/19 03:40:07;;;;;;;43.47;23.77;;;;;;;7.15;100.00;99339.00;10433003;28;20041;-75
2023/10/19 03:45:14;;;;;;;49.47;23.98;;;;;;;7.14;100.00;99343.66;10427338;28;20340;-71
2023/10/19 03:50:20;;;;;;;42.22;20.77;;;;;;;7.08;100.00;99337.34;10409089;28;20110;-72
2023/10/19 03:55:22;;;;;;;43.03;21.70;;;;;;;7.12;100.00;99334.09;10404044;28;20033;-71
2023/10/19 04:00:28;;;;;;;39.80;20.98;;;;;;;7.13;100.00;99319.28;10413511;28;20284;-73
2023/10/19 04:05:29;;;;;;;52.13;23.55;;;;;;;7.14;100.00;99320.94;10416915;28;20543;-70
2023/10/19 04:10:30;;;;;;;44.50;21.50;;;;;;;7.15;100.00;99325.31;10413323;28;20060;-73
2023/10/19 04:15:34;;;;;;;43.40;21.52;;;;;;;7.07;100.00;99305.59;10412355;28;20060;-73
2023/10/19 04:25:56;;;;;;;36.25;19.52;;;;;;;7.17;100.00;99299.34;10406597;28;20052;-74
2023/10/19 04:31:02;;;;;;;42.88;19.02;;;;;;;7.21;100.00;99288.66;10414778;28;20042;-72
2023/10/19 04:36:03;;;;;;;40.53;18.40;;;;;;;7.23;100.00;99297.41;10414515;28;20080;-72
2023/10/19 04:41:07;;;;;;;34.05;16.65;;;;;;;7.24;100.00;99296.34;10427750;28;20037;-72
2023/10/19 04:46:12;;;;;;;33.90;17.38;;;;;;;6.84;100.00;99233.06;10411127;28;20037;-73
2023/10/19 04:51:13;;;;;;;29.48;16.23;;;;;;;7.25;100.00;99285.09;10413670;28;20037;-73
2023/10/19 04:56:14;;;;;;;29.42;15.13;;;;;;;7.25;100.00;99296.03;10407407;28;20041;-73
2023/10/19 05:01:15;;;;;;;32.85;15.15;;;;;;;7.23;100.00;99291.94;10411867;28;20046;-71
2023/10/19 05:06:15;;;;;;;28.48;13.82;;;;;;;7.21;100.00;99286.75;10414784;28;20034;-72
2023/10/19 05:11:16;;;;;;;23.17;11.88;;;;;;;7.24;100.00;99290.88;10413385;28;20426;-73
2023/10/19 05:16:16;;;;;;;24.40;12.10;;;;;;;7.23;100.00;99298.22;10413321;28;20047;-73
2023/10/19 05:21:16;;;;;;;24.23;12.55;;;;;;;7.25;100.00;99297.97;10412866;28;20075;-72
2023/10/19 05:26:17;;;;;;;21.23;11.25;;;;;;;7.24;100.00;99288.13;10430323;28;20034;-73
2023/10/19 05:31:17;;;;;;;21.27;10.65;;;;;;;7.15;100.00;99284.25;10413366;28;20038;-73
2023/10/19 05:36:18;;;;;;;18.77;10.82;;;;;;;7.21;100.00;99296.88;10413763;28;20045;-73
2023/10/19 05:41:21;;;;;;;22.10;10.38;;;;;;;7.22;100.00;99302.06;10416656;28;20072;-73
2023/10/19 05:46:24;;;;;;;18.77;10.65;;;;;;;7.21;100.00;99302.34;10420761;28;20516;-73
2023/10/19 05:51:26;;;;;;;21.23;10.63;;;;;;;7.21;100.00;99303.19;10421650;28;20060;-73
2023/10/19 05:56:30;;;;;;;17.80;10.23;;;;;;;7.24;100.00;99310.84;10422057;28;20079;-72
2023/10/19 06:01:30;;;;;;;21.52;10.90;;;;;;;7.23;100.00;99316.56;10420817;28;20486;-73
2023/10/19 06:06:31;;;;;;;22.55;11.20;;;;;;;7.24;100.00;99312.75;10419328;28;20040;-72
2023/10/19 06:11:37;;;;;;;16.35;10.05;;;;;;;7.24;100.00;99297.16;10419840;28;20042;-74
2023/10/19 06:16:37;;;;;;;20.55;10.60;;;;;;;7.23;100.00;99308.38;10418650;28;20053;-73
2023/10/19 06:21:38;;;;;;;15.88;9.60;;;;;;;7.22;100.00;99318.50;10419604;28;20045;-73
2023/10/19 06:26:38;;;;;;;18.40;9.70;;;;;;;7.23;100.00;99330.25;10418840;28;20075;-73
2023/10/19 06:31:39;;;;;;;14.07;9.07;;;;;;;7.21;100.00;99316.03;10420385;28;20409;-72
2023/10/19 06:36:39;;;;;;;17.63;9.23;;;;;;;7.24;100.00;99320.97;10417743;28;20037;-72
2023/10/19 06:41:40;;;;;;;17.30;9.35;;;;;;;7.25;100.00;99322.59;10418429;28;20042;-75
2023/10/19 06:46:41;;;;;;;16.75;8.90;;;;;;;7.23;100.00;99336.56;10418841;28;21080;-72
2023/10/19 06:51:41;;;;;;;17.02;9.02;;;;;;;7.25;100.00;99345.31;10418469;28;20049;-74
2023/10/19 06:56:45;;;;;;;17.20;9.02;;;;;;;6.78;100.00;99255.16;10417754;28;20041;-72
2023/10/19 07:01:46;;;;;;;16.58;10.38;;;;;;;7.32;100.00;99350.56;10418501;28;20620;-73
2023/10/19 07:06:47;;;;;;;16.15;9.55;;;;;;;7.33;100.00;99352.19;10417345;28;20041;-72
2023/10/19 07:11:48;;;;;;;18.75;10.27;;;;;;;7.30;100.00;99358.22;10414235;28;20486;-73
2023/10/19 07:16:51;;;;;;;19.20;10.20;;;;;;;7.32;100.00;99356.03;10417115;28;20037;-71
2023/10/19 07:21:57;;;;;;;18.80;9.88;;;;;;;7.32;100.00;99352.44;10417366;28;20072;-73
2023/10/19 07:27:04;;;;;;;16.83;8.82;;;;;;;7.30;100.00;99347.28;10418098;28;20120;-73
2023/10/19 07:32:05;;;;;;;15.95;9.45;;;;;;;7.33;100.00;99340.41;10416870;28;20049;-72
2023/10/19 07:37:07;;;;;;;15.73;9.27;;;;;;;7.35;100.00;99358.22;10416386;28;20045;-72
2023/10/19 07:42:07;;;;;;;13.98;8.98;;;;;;;7.38;100.00;99359.59;10415860;28;20042;-72
2023/10/19 07:47:09;;;;;;;13.57;8.85;;;;;;;7.39;100.00;99364.78;10415270;28;20038;-73
2023/10/19 07:52:14;;;;;;;15.00;8.60;;;;;;;7.37;100.00;99347.00;10411844;28;20034;-72
2023/10/19 07:57:15;;;;;;;14.00;8.00;;;;;;;7.42;100.00;99360.69;10411107;28;20111;-73
2023/10/19 08:02:16;;;;;;;14.25;8.80;;;;;;;7.46;100.00;99351.69;10410830;28;20087;-73
2023/10/19 08:07:17;;;;;;;14.20;7.82;;;;;;;7.50;100.00;99362.09;10411350;28;20053;-73
2023/10/19 08:12:17;;;;;;;14.55;8.10;;;;;;;7.42;100.00;99367.00;10413148;28;20044;-74
2023/10/19 08:17:18;;;;;;;13.18;8.65;;;;;;;7.50;100.00;99381.25;10412555;28;20044;-73
2023/10/19 08:22:19;;;;;;;14.25;8.35;;;;;;;7.43;100.00;99354.94;10414353;28;20041;-72
2023/10/19 08:27:19;;;;;;;13.05;8.77;;;;;;;7.51;100.00;99369.22;10409804;28;20037;-72
2023/10/19 08:32:20;;;;;;;16.80;9.52;;;;;;;7.54;100.00;99385.09;10428325;28;20037;-72
2023/10/19 08:37:20;;;;;;;12.23;7.65;;;;;;;7.47;100.00;99369.75;10415258;28;20038;-73
2023/10/19 08:42:21;;;;;;;15.00;9.15;;;;;;;7.56;100.00;99380.97;10415482;28;20060;-73
2023/10/19 08:47:25;;;;;;;14.20;8.60;;;;;;;7.60;100.00;99386.75;10412373;28;20041;-72
2023/10/19 08:52:26;;;;;;;13.23;8.27;;;;;;;7.57;100.00;99373.63;10412786;28;20034;-73
2023/10/19 08:57:28;;;;;;;15.52;8.55;;;;;;;7.10;100.00;99297.94;10397698;28;20044;-73
2023/10/19 09:02:29;;;;;;;12.25;7.47;;;;;;;7.68;100.00;99386.22;10396866;28;20053;-73
2023/10/19 09:07:30;;;;;;;12.77;8.85;;;;;;;7.71;100.00;99385.69;10414173;28;20061;-73
2023/10/19 09:12:31;;;;;;;15.05;8.77;;;;;;;7.70;100.00;99373.06;10417664;28;20052;-72
2023/10/19 09:17:31;;;;;;;14.80;8.35;;;;;;;7.77;100.00;99381.00;10422930;28;20037;-73
2023/10/19 09:22:36;;;;;;;14.15;8.75;;;;;;;7.83;100.00;99386.25;10423250;28;20042;-74
2023/10/19 09:27:37;;;;;;;13.32;8.55;;;;;;;7.89;100.00;99378.84;10422646;28;20045;-73
2023/10/19 09:32:39;;;;;;;16.63;8.30;;;;;;;7.94;100.00;99388.97;10422042;28;20484;-75
2023/10/19 09:37:39;;;;;;;14.13;9.57;;;;;;;7.96;100.00;99379.41;10419982;28;20077;-74
2023/10/19 09:42:45;;;;;;;14.35;8.90;;;;;;;7.98;100.00;99384.59;10400395;28;20078;-73
2023/10/19 09:47:49;;;;;;;12.45;8.73;;;;;;;8.06;100.00;99375.81;10418451;28;20109;-73
2023/10/19 09:52:51;;;;;;;13.18;9.00;;;;;;;8.15;100.00;99368.72;10420605;28;20084;-74
2023/10/19 09:57:57;;;;;;;15.00;9.27;;;;;;;8.18;100.00;99362.66;10418996;28;20421;-73
2023/10/19 10:02:58;;;;;;;;;;;;;;;8.24;100.00;99361.56;10421042;28;20580;-73
2023/10/19 10:08:17;;;;;;;14.13;9.70;;;;;;;8.29;100.00;99360.75;10420223;28;20307;-74
2023/10/19 10:13:26;;;;;;;14.35;10.63;;;;;;;8.29;100.00;99363.50;10413006;28;20030;-73
2023/10/19 10:18:29;;;;;;;19.73;13.10;;;;;;;8.34;100.00;99371.69;10419988;28;20037;-73
2023/10/19 10:23:34;;;;;;;19.77;13.23;;;;;;;8.43;100.00;99369.25;10416242;28;20050;-72
2023/10/19 10:28:35;;;;;;;24.75;14.15;;;;;;;8.40;100.00;99361.56;10417428;28;20037;-73
2023/10/19 10:33:45;;;;;;;22.08;14.80;;;;;;;8.49;100.00;99362.66;10417829;28;20049;-74
2023/10/19 10:38:56;;;;;;;24.42;16.25;;;;;;;8.52;100.00;99356.63;10412260;28;20076;-73
2023/10/19 10:43:57;;;;;;;25.98;16.88;;;;;;;8.56;100.00;99363.19;10417461;28;20068;-73
2023/10/19 10:48:57;;;;;;;32.67;20.35;;;;;;;8.53;100.00;99363.72;10419094;28;20032;-73
2023/10/19 10:53:58;;;;;;;29.65;18.55;;;;;;;8.62;100.00;99361.25;10418580;28;20034;-74
2023/10/19 10:58:59;;;;;;;28.38;17.25;;;;;;;8.65;100.00;99350.53;10407915;28;20042;-70
2023/10/19 11:04:07;;;;;;;23.90;14.02;;;;;;;8.73;100.00;99345.59;10418362;28;20052;-71
2023/10/19 11:09:11;;;;;;;19.63;11.70;;;;;;;8.69;100.00;99354.38;10408941;28;20033;-71
2023/10/19 11:14:11;;;;;;;16.33;10.85;;;;;;;8.65;100.00;99366.19;10418924;28;20373;-71
2023/10/19 11:19:12;;;;;;;17.90;11.20;;;;;;;8.64;100.00;99359.88;10417419;28;20048;-74
2023/10/19 11:24:24;;;;;;;16.92;10.55;;;;;;;8.66;100.00;99363.16;10417561;28;20044;-69
2023/10/19 11:29:25;;;;;;;14.30;10.35;;;;;;;8.64;100.00;99368.13;10416410;28;20122;-72
2023/10/19 11:34:25;;;;;;;17.35;10.57;;;;;;;8.60;100.00;99369.78;10414951;28;20067;-71
2023/10/19 11:39:26;;;;;;;19.98;12.93;;;;;;;8.59;100.00;99367.28;10414887;28;20045;-72
2023/10/19 11:44:27;;;;;;;26.00;15.60;;;;;;;8.60;100.00;99374.41;10415321;28;20043;-72
2023/10/19 11:49:27;;;;;;;27.20;18.77;;;;;;;8.61;100.00;99371.41;10414776;28;20049;-71
2023/10/19 11:54:29;;;;;;;37.35;21.45;;;;;;;8.62;100.00;99378.53;10414611;28;20064;-72
2023/10/19 11:59:29;;;;;;;35.38;23.17;;;;;;;8.55;100.00;99371.69;10413260;28;20041;-72
2023/10/19 12:04:32;;;;;;;34.55;22.15;;;;;;;8.53;100.00;99369.22;10414450;28;20046;-72
2023/10/19 12:09:32;;;;;;;32.85;21.25;;;;;;;8.57;100.00;99356.59;10407188;28;20068;-71
2023/10/19 12:14:36;;;;;;;29.38;18.10;;;;;;;8.59;100.00;99346.16;10416233;28;20132;-72
2023/10/19 12:19:36;;;;;;;26.88;18.08;;;;;;;8.66;100.00;99352.19;10415764;28;20433;-72
2023/10/19 12:24:36;;;;;;;23.08;15.40;;;;;;;8.74;100.00;99333.50;10415486;28;20053;-73
2023/10/19 12:29:37;;;;;;;27.80;13.95;;;;;;;8.76;100.00;99336.78;10415041;28;20053;-73
2023/10/19 12:34:39;;;;;;;23.50;13.32;;;;;;;8.77;100.00;99332.97;10406315;28;20239;-72
2023/10/19 12:39:44;;;;;;;18.60;12.07;;;;;;;8.74;100.00;99352.72;10415060;28;20200;-73
2023/10/19 12:44:45;;;;;;;17.48;11.15;;;;;;;8.66;100.00;99348.59;10414769;28;20045;-72
2023/10/19 12:49:46;;;;;;;20.75;12.88;;;;;;;8.65;100.00;99350.53;10414086;28;20099;-72
2023/10/19 12:54:51;;;;;;;22.50;13.02;;;;;;;8.62;100.00;99336.56;10420893;28;20395;-73
2023/10/19 12:59:51;;;;;;;23.27;12.90;;;;;;;8.55;100.00;99345.06;10422443;28;20041;-73
2023/10/19 13:04:52;;;;;;;23.80;12.50;;;;;;;8.52;100.00;99345.66;10423446;28;20045;-72
2023/10/19 13:09:52;;;;;;;21.48;11.90;;;;;;;8.46;100.00;99338.53;10423197;28;20046;-73
2023/10/19 13:14:53;;;;;;;22.95;11.98;;;;;;;8.35;100.00;99334.97;10422728;28;20048;-73
2023/10/19 13:19:56;;;;;;;21.25;12.60;;;;;;;8.37;100.00;99315.47;10421984;28;20049;-72
2023/10/19 13:24:56;;;;;;;23.30;13.82;;;;;;;8.45;100.00;99318.53;10422165;28;20046;-71
2023/10/19 13:29:57;;;;;;;19.80;12.18;;;;;;;8.45;100.00;99310.28;10420646;28;20049;-72
2023/10/19 13:34:57;;;;;;;18.67;10.65;;;;;;;8.41;100.00;99311.09;10421766;28;20045;-72
2023/10/19 13:39:58;;;;;;;22.20;13.25;;;;;;;8.04;100.00;99257.41;10420809;28;20033;-72
2023/10/19 13:44:59;;;;;;;25.80;11.63;;;;;;;8.41;100.00;99294.66;10421136;28;20482;-73
2023/10/19 13:50:00;;;;;;;21.10;12.15;;;;;;;8.43;100.00;99308.91;10419630;28;20037;-72
2023/10/19 13:55:01;;;;;;;20.17;12.95;;;;;;;8.48;100.00;99303.41;10421117;28;20038;-72
2023/10/19 14:00:01;;;;;;;28.00;14.18;;;;;;;8.50;100.00;99303.16;10420026;28;20037;-72
2023/10/19 14:05:02;;;;;;;29.30;14.90;;;;;;;8.51;100.00;99305.59;10419697;28;20068;-70
2023/10/19 14:10:03;;;;;;;28.55;13.60;;;;;;;8.54;100.00;99302.31;10420483;28;20093;-72
2023/10/19 14:15:04;;;;;;;28.95;13.27;;;;;;;8.56;100.00;99302.00;10420284;28;20033;-70
2023/10/19 14:20:05;;;;;;;29.08;13.10;;;;;;;8.56;100.00;99296.50;10419307;28;20505;-73
2023/10/19 14:25:13;;;;;;;39.50;14.68;;;;;;;8.51;100.00;99310.25;10415568;28;20048;-72
2023/10/19 14:30:15;;;;;;;27.17;12.23;;;;;;;8.47;100.00;99304.50;10417018;28;20045;-72
2023/10/19 14:35:17;;;;;;;25.83;12.85;;;;;;;8.35;100.00;99284.75;10418748;28;20037;-72
2023/10/19 14:40:23;;;;;;;26.15;12.70;;;;;;;8.42;100.00;99302.59;10413974;28;20041;-72
2023/10/19 14:45:32;;;;;;;35.83;13.98;;;;;;;8.38;100.00;99306.16;10418336;28;20045;-72
2023/10/19 14:50:32;;;;;;;26.20;12.90;;;;;;;8.35;100.00;99306.69;10415862;28;20037;-72
2023/10/19 14:55:33;;;;;;;31.67;13.73;;;;;;;8.25;100.00;99291.94;10419258;28;20073;-72
2023/10/19 15:00:47;;;;;;;32.22;14.10;;;;;;;7.94;100.00;99213.59;10416832;28;20041;-73
2023/10/19 15:05:51;;;;;;;38.78;15.23;;;;;;;8.30;100.00;99266.41;10424610;28;20049;-73
2023/10/19 15:10:54;;;;;;;31.60;13.68;;;;;;;8.33;100.00;99256.81;10438187;28;20030;-73
2023/10/19 15:15:56;;;;;;;26.42;13.48;;;;;;;8.29;100.00;99265.59;10430263;28;20034;-74
2023/10/19 15:20:56;;;;;;;32.33;14.48;;;;;;;8.24;100.00;99268.34;10432690;28;20462;-75
2023/10/19 15:25:57;;;;;;;30.38;13.43;;;;;;;8.22;100.00;99270.53;10426330;28;20072;-74
2023/10/19 15:30:59;;;;;;;32.90;15.02;;;;;;;8.21;100.00;99288.09;10419952;28;20052;-73
2023/10/19 15:35:59;;;;;;;29.80;13.43;;;;;;;8.21;100.00;99287.28;10392326;28;20395;-74
2023/10/19 15:40:59;;;;;;;30.48;14.55;;;;;;;8.25;100.00;99280.16;10394067;28;20037;-74
2023/10/19 15:46:02;;;;;;;33.80;14.43;;;;;;;8.24;100.00;99267.53;10393665;28;20054;-75
2023/10/19 15:51:04;;;;;;;23.63;13.20;;;;;;;8.23;100.00;99266.72;10393986;28;20049;-73
2023/10/19 15:56:05;;;;;;;29.65;13.38;;;;;;;8.19;100.00;99260.16;10392890;28;20322;-74
2023/10/19 16:01:06;;;;;;;33.30;14.63;;;;;;;8.16;100.00;99265.34;10408589;28;20072;-73
2023/10/19 16:06:07;;;;;;;30.67;15.05;;;;;;;8.15;100.00;99258.25;10398554;28;20041;-73
2023/10/19 16:11:07;;;;;;;27.88;14.15;;;;;;;8.14;100.00;99262.88;10411086;28;20038;-74
2023/10/19 16:16:09;;;;;;;28.88;14.45;;;;;;;8.14;100.00;99262.88;10402002;28;20124;-75
2023/10/19 16:21:09;;;;;;;31.65;14.65;;;;;;;8.14;100.00;99279.31;10410850;28;20068;-72
2023/10/19 16:26:10;;;;;;;36.00;16.48;;;;;;;8.09;100.00;99254.69;10416633;28;20042;-74
2023/10/19 16:31:11;;;;;;;37.45;15.70;;;;;;;8.06;100.00;99257.97;10412691;28;20050;-72
2023/10/19 16:36:13;;;;;;;38.78;17.13;;;;;;;8.06;100.00;99255.22;10420680;28;20056;-73
2023/10/19 16:41:13;;;;;;;40.00;16.98;;;;;;;7.78;100.00;99213.63;10424750;28;20046;-73
2023/10/19 16:46:14;;;;;;;42.75;17.45;;;;;;;8.01;100.00;99247.03;10423862;28;20091;-74
2023/10/19 16:51:15;;;;;;;36.40;15.88;;;;;;;8.03;100.00;99250.31;10409345;28;20048;-73
2023/10/19 16:56:15;;;;;;;37.78;15.85;;;;;;;7.96;100.00;99255.25;10422178;28;20045;-74
2023/10/19 17:01:16;;;;;;;45.50;16.33;;;;;;;7.92;100.00;99257.72;10422748;28;20041;-74
2023/10/19 17:06:17;;;;;;;38.65;17.05;;;;;;;7.91;100.00;99230.59;10425168;28;20045;-73
2023/10/19 17:11:17;;;;;;;37.72;16.42;;;;;;;7.94;100.00;99238.25;10426183;28;20033;-74
2023/10/19 17:16:18;;;;;;;36.70;18.63;;;;;;;7.88;100.00;99238.28;10423693;28;20077;-74
2023/10/19 17:21:18;;;;;;;43.55;19.05;;;;;;;7.85;100.00;99240.75;10413367;28;20029;-73
2023/10/19 17:26:19;;;;;;;46.80;19.40;;;;;;;7.83;100.00;99240.19;10429439;28;20072;-73
2023/10/19 17:31:20;;;;;;;46.38;20.17;;;;;;;7.83;100.00;99237.47;10418610;28;20562;-73
2023/10/19 17:36:20;;;;;;;54.20;19.75;;;;;;;7.76;100.00;99229.53;10428913;28;20030;-74
2023/10/19 17:41:21;;;;;;;48.60;21.08;;;;;;;7.71;100.00;99231.44;10429401;28;20103;-75
2023/10/19 17:46:21;;;;;;;51.63;21.25;;;;;;;7.67;100.00;99225.72;10432225;28;20204;-74
2023/10/19 17:51:22;;;;;;;55.28;21.38;;;;;;;7.63;100.00;99219.16;10438427;28;20237;-73
2023/10/19 17:56:23;;;;;;;50.55;21.02;;;;;;;7.60;100.00;99225.16;10426726;28;20060;-75
2023/10/19 18:01:23;;;;;;;52.38;22.10;;;;;;;7.51;100.00;99211.22;10432594;28;20038;-71
2023/10/19 18:06:24;;;;;;;62.00;23.90;;;;;;;7.61;100.00;99237.78;10430879;28;20076;-74
2023/10/19 18:11:28;;;;;;;65.18;25.83;;;;;;;7.56;100.00;99230.34;10431973;28;20060;-75
2023/10/19 18:16:30;;;;;;;60.92;25.27;;;;;;;7.53;100.00;99225.44;10431354;28;20037;-74
2023/10/19 18:21:33;;;;;;;61.33;24.92;;;;;;;7.56;100.00;99232.28;10423884;28;20501;-74
2023/10/19 18:26:35;;;;;;;70.85;28.27;;;;;;;7.54;100.00;99237.22;10419252;28;20065;-73
2023/10/19 18:31:35;;;;;;;69.82;27.05;;;;;;;7.53;100.00;99238.31;10417692;28;20073;-75
2023/10/19 18:36:36;;;;;;;64.90;27.58;;;;;;;7.52;100.00;99233.94;10423101;28;20046;-75
2023/10/19 18:41:36;;;;;;;69.72;28.83;;;;;;;7.51;100.00;99248.72;10434754;28;20037;-75
2023/10/19 18:46:37;;;;;;;79.15;30.25;;;;;;;7.46;100.00;99247.63;10429204;28;20056;-73
2023/10/19 18:51:37;;;;;;;82.60;29.48;;;;;;;7.48;100.00;99241.84;10412660;28;20048;-75
2023/10/19 18:56:38;;;;;;;76.72;30.05;;;;;;;7.47;100.00;99238.31;10420894;28;20045;-75
2023/10/19 19:01:38;;;;;;;68.45;29.52;;;;;;;7.45;100.00;99229.53;10430068;28;20041;-70
2023/10/19 19:06:39;;;;;;;90.05;29.10;;;;;;;7.15;100.00;99186.59;10406463;28;20618;-74
2023/10/19 19:11:42;;;;;;;68.38;28.10;;;;;;;7.43;100.00;99229.00;10414877;28;20425;-75
2023/10/19 19:16:44;;;;;;;59.50;26.50;;;;;;;7.32;100.00;99212.84;10405663;28;20046;-73
2023/10/19 19:21:44;;;;;;;71.10;27.38;;;;;;;6.24;100.00;99033.06;10412375;28;20101;-74
2023/10/19 19:26:45;;;;;;;70.82;28.98;;;;;;;7.37;100.00;99216.41;10407878;28;20374;-74
2023/10/19 19:31:46;;;;;;;68.43;28.08;;;;;;;7.36;100.00;99213.94;10409796;28;20034;-75
2023/10/19 19:36:47;;;;;;;68.63;27.48;;;;;;;7.34;100.00;99221.59;10407732;28;20038;-74
2023/10/19 19:41:47;;;;;;;67.32;28.10;;;;;;;7.32;100.00;99202.72;10420939;28;20036;-75
2023/10/19 19:46:48;;;;;;;60.13;26.20;;;;;;;7.28;100.00;99207.13;10417726;28;20033;-73
2023/10/19 19:51:48;;;;;;;75.43;28.70;;;;;;;7.30;100.00;99212.28;10409367;28;20038;-74
2023/10/19 19:56:49;;;;;;;70.68;28.17;;;;;;;7.33;100.00;99209.03;10411882;28;20085;-74
2023/10/19 20:01:49;;;;;;;62.75;27.23;;;;;;;7.29;100.00;99203.25;10418673;28;20065;-74
2023/10/19 20:06:50;;;;;;;50.60;22.88;;;;;;;7.22;100.00;99191.78;10412317;28;20037;-73
2023/10/19 20:11:51;;;;;;;56.58;26.10;;;;;;;7.25;100.00;99196.69;10388181;28;20049;-75
2023/10/19 20:16:52;;;;;;;59.90;25.58;;;;;;;7.25;100.00;99208.44;10413792;28;20060;-74
2023/10/19 20:21:53;;;;;;;42.75;22.05;;;;;;;7.16;100.00;99198.34;10417854;28;20045;-73
2023/10/19 20:26:53;;;;;;;54.75;24.92;;;;;;;7.17;100.00;99197.22;10400849;28;20116;-74
2023/10/19 20:31:54;;;;;;;62.50;25.73;;;;;;;7.16;100.00;99179.19;10417175;28;20037;-74
2023/10/19 20:36:55;;;;;;;53.45;24.35;;;;;;;7.19;100.00;99170.41;10422341;28;20033;-74
2023/10/19 20:41:55;;;;;;;49.60;25.33;;;;;;;7.15;100.00;99186.59;10430920;28;20505;-76
2023/10/19 20:46:56;;;;;;;56.08;25.80;;;;;;;7.13;100.00;99182.44;10428079;28;20044;-72
2023/10/19 20:51:57;;;;;;;47.05;24.30;;;;;;;7.12;100.00;99167.16;10404745;28;20045;-73
2023/10/19 20:56:57;;;;;;;51.88;25.67;;;;;;;7.07;100.00;99146.88;10414118;28;20042;-74
2023/10/19 21:01:58;;;;;;;54.05;26.02;;;;;;;7.06;100.00;99150.72;10429219;28;20037;-72
2023/10/19 21:06:59;;;;;;;47.05;23.98;;;;;;;7.01;100.00;99161.66;10429206;28;20071;-69
2023/10/19 21:11:59;;;;;;;58.40;25.80;;;;;;;6.98;100.00;99151.25;10435116;28;20049;-74
2023/10/19 21:16:59;;;;;;;49.05;25.58;;;;;;;6.97;100.00;99151.53;10437038;28;20037;-73
2023/10/19 21:22:01;;;;;;;47.33;25.30;;;;;;;6.98;100.00;99164.94;10434133;28;20113;-73
2023/10/19 21:27:02;;;;;;;54.65;26.35;;;;;;;6.97;100.00;99163.31;10430761;28;20123;-73
2023/10/19 21:32:03;;;;;;;56.30;28.20;;;;;;;6.95;100.00;99160.03;10429629;28;20064;-73
2023/10/19 21:37:04;;;;;;;54.45;27.17;;;;;;;6.98;100.00;99167.66;10428638;28;20092;-73
2023/10/19 21:42:04;;;;;;;53.63;26.90;;;;;;;7.01;100.00;99147.97;10426086;28;20046;-73
2023/10/19 21:47:06;;;;;;;55.47;26.38;;;;;;;7.01;100.00;99158.13;10435304;28;20042;-73
2023/10/19 21:52:06;;;;;;;51.42;26.92;;;;;;;6.98;100.00;99153.16;10433013;28;20056;-72
2023/10/19 21:57:08;;;;;;;50.30;26.88;;;;;;;6.98;100.00;99142.22;10438444;28;20044;-73
2023/10/19 22:02:09;;;;;;;50.53;25.90;;;;;;;6.98;100.00;99137.56;10428626;28;20045;-71
2023/10/19 22:07:10;;;;;;;58.83;26.98;;;;;;;6.98;100.00;99134.03;10432109;28;20037;-73
2023/10/19 22:12:10;;;;;;;49.17;25.15;;;;;;;6.97;100.00;99125.00;10429955;28;20044;-72
2023/10/19 22:17:11;;;;;;;50.63;25.65;;;;;;;7.00;100.00;99129.91;10434654;28;20056;-72
2023/10/19 22:22:11;;;;;;;47.28;23.02;;;;;;;6.96;100.00;99109.66;10431630;28;20046;-69
2023/10/19 22:27:14;;;;;;;38.53;20.08;;;;;;;6.97;100.00;99114.06;10429503;28;20045;-73
2023/10/19 22:32:14;;;;;;;39.53;19.98;;;;;;;6.97;100.00;99103.13;10434952;28;20037;-72
2023/10/19 22:37:14;;;;;;;43.67;20.88;;;;;;;6.99;100.00;99100.91;10426129;28;20046;-73
2023/10/19 22:42:15;;;;;;;38.67;19.98;;;;;;;6.98;100.00;99074.66;10418441;28;20390;-73
2023/10/19 22:47:15;;;;;;;36.35;19.80;;;;;;;7.00;100.00;99064.25;10419124;28;20025;-74
2023/10/19 22:52:16;;;;;;;35.45;19.77;;;;;;;6.98;100.00;99082.03;10420522;28;20037;-72
2023/10/19 22:57:16;;;;;;;37.58;19.35;;;;;;;7.00;100.00;99096.25;10419458;28;20042;-72
2023/10/19 23:02:19;;;;;;;37.50;20.58;;;;;;;6.97;100.00;99086.69;10418052;28;20049;-74
2023/10/19 23:07:19;;;;;;;37.30;20.20;;;;;;;6.99;100.00;99084.50;10417319;28;20093;-72